createdAt,value
2022-11-17T00:02:15.586Z,9.82
2022-11-17T00:05:18.154Z,9.93
2022-11-17T00:08:22.347Z,10.02
2022-11-17T00:11:24.820Z,9.98
2022-11-17T00:14:33.269Z,10.01
2022-11-17T00:17:35.699Z,9.97
2022-11-17T00:20:57.228Z,9.99
2022-11-17T00:24:01.031Z,9.97
2022-11-17T00:27:03.660Z,9.92
2022-11-17T00:30:07.523Z,9.93
2022-11-17T00:33:28.626Z,9.87
2022-11-17T00:36:31.461Z,9.93
2022-11-17T00:39:35.815Z,9.97
2022-11-17T00:42:38.254Z,10.01
2022-11-17T00:45:40.725Z,9.96
2022-11-17T00:48:43.170Z,9.85
2022-11-17T00:51:45.896Z,9.92
2022-11-17T00:54:49.670Z,9.75
2022-11-17T00:57:52.135Z,9.82
2022-11-17T01:00:54.559Z,9.81
2022-11-17T01:04:05.196Z,9.69
2022-11-17T01:07:07.674Z,9.76
2022-11-17T01:10:11.511Z,9.87
2022-11-17T01:13:13.936Z,9.86
2022-11-17T01:16:18.741Z,9.78
2022-11-17T01:19:22.185Z,9.73
2022-11-17T01:22:24.632Z,9.76
2022-11-17T01:25:28.455Z,9.70
2022-11-17T01:28:31.015Z,9.64
2022-11-17T01:31:35.139Z,9.71
2022-11-17T01:34:37.586Z,9.78
2022-11-17T01:37:40.064Z,9.73
2022-11-17T01:40:43.882Z,9.78
2022-11-17T01:43:49.353Z,9.68
2022-11-17T01:46:54.578Z,9.68
2022-11-17T01:50:03.775Z,9.69
2022-11-17T01:53:11.151Z,9.78
2022-11-17T01:56:20.206Z,9.70
2022-11-17T01:59:28.179Z,9.65
2022-11-17T02:02:30.838Z,9.78
2022-11-17T02:05:42.229Z,9.77
2022-11-17T02:08:46.920Z,9.59
2022-11-17T02:11:51.043Z,9.70
2022-11-17T02:14:54.744Z,9.64
2022-11-17T02:17:58.437Z,9.65
2022-11-17T02:21:21.770Z,9.64
2022-11-17T02:24:59.156Z,9.62
2022-11-17T02:28:17.032Z,9.64
2022-11-17T02:31:26.603Z,9.59
2022-11-17T02:34:38.308Z,9.60
2022-11-17T02:37:47.699Z,9.58
2022-11-17T02:40:55.662Z,9.45
2022-11-17T02:44:05.675Z,9.45
2022-11-17T02:47:12.588Z,9.50
2022-11-17T02:50:17.844Z,9.48
2022-11-17T02:53:22.546Z,9.52
2022-11-17T02:56:24.984Z,9.40
2022-11-17T02:59:33.915Z,9.53
2022-11-17T03:03:08.703Z,9.53
2022-11-17T03:06:23.420Z,9.50
2022-11-17T03:09:38.707Z,9.43
2022-11-17T03:12:46.947Z,9.55
2022-11-17T03:15:55.244Z,9.48
2022-11-17T03:19:09.444Z,9.37
2022-11-17T03:22:17.483Z,9.51
2022-11-17T03:25:23.553Z,9.44
2022-11-17T03:28:30.395Z,9.44
2022-11-17T03:31:35.402Z,9.40
2022-11-17T03:34:42.812Z,9.30
2022-11-17T03:37:49.731Z,9.37
2022-11-17T03:40:55.214Z,9.47
2022-11-17T03:43:59.366Z,9.46
2022-11-17T03:47:05.548Z,9.43
2022-11-17T03:50:13.967Z,9.39
2022-11-17T03:53:16.461Z,9.25
2022-11-17T03:56:31.610Z,9.33
2022-11-17T03:59:43.269Z,9.33
2022-11-17T04:02:54.038Z,9.34
2022-11-17T04:05:56.527Z,9.34
2022-11-17T04:08:59.296Z,9.37
2022-11-17T04:12:20.260Z,9.29
2022-11-17T04:15:52.468Z,9.12
2022-11-17T04:18:58.820Z,9.18
2022-11-17T04:22:01.813Z,9.22
2022-11-17T04:25:05.038Z,9.18
2022-11-17T04:28:27.074Z,9.21
2022-11-17T04:31:31.194Z,9.17
2022-11-17T04:34:35.055Z,9.20
2022-11-17T04:37:37.565Z,9.17
2022-11-17T04:41:00.034Z,9.15
2022-11-17T04:44:04.335Z,9.16
2022-11-17T04:47:07.048Z,9.11
2022-11-17T04:50:10.907Z,9.12
2022-11-17T04:53:13.344Z,9.00
2022-11-17T04:56:15.770Z,9.09
2022-11-17T04:59:18.271Z,9.11
2022-11-17T05:02:20.757Z,9.02
2022-11-17T05:05:24.614Z,9.02
2022-11-17T05:08:27.030Z,9.08
2022-11-17T05:11:49.447Z,9.08
2022-11-17T05:14:52.386Z,9.12
2022-11-17T05:17:54.789Z,9.15
2022-11-17T05:21:02.970Z,9.02
2022-11-17T05:24:06.052Z,8.97
2022-11-17T05:27:08.494Z,8.98
2022-11-17T05:30:12.003Z,8.99
2022-11-17T05:33:14.437Z,8.96
2022-11-17T05:36:19.157Z,8.96
2022-11-17T05:39:21.609Z,8.90
2022-11-17T05:42:24.172Z,8.88
2022-11-17T05:45:26.964Z,8.88
2022-11-17T05:48:29.481Z,8.76
2022-11-17T05:51:33.442Z,8.84
2022-11-17T05:54:36.011Z,8.81
2022-11-17T05:57:38.667Z,8.84
2022-11-17T06:00:41.651Z,8.84
2022-11-17T06:03:50.079Z,8.85
2022-11-17T06:07:02.779Z,8.77
2022-11-17T06:10:06.552Z,8.89
2022-11-17T06:13:09.120Z,8.86
2022-11-17T06:16:15.978Z,8.76
2022-11-17T06:19:22.454Z,8.80
2022-11-17T06:22:27.556Z,8.82
2022-11-17T06:25:30.854Z,8.78
2022-11-17T06:28:35.240Z,8.79
2022-11-17T06:31:39.072Z,8.82
2022-11-17T06:34:56.768Z,8.68
2022-11-17T06:38:00.776Z,8.75
2022-11-17T06:41:07.484Z,8.81
2022-11-17T06:44:15.085Z,8.81
2022-11-17T06:47:17.840Z,8.83
2022-11-17T06:50:20.642Z,8.83
2022-11-17T06:53:26.569Z,8.82
2022-11-17T06:56:40.830Z,8.89
2022-11-17T06:59:47.430Z,8.93
2022-11-17T07:02:50.105Z,8.81
2022-11-17T07:05:52.664Z,8.92
2022-11-17T07:08:56.551Z,8.95
2022-11-17T07:11:59.257Z,9.01
2022-11-17T07:15:02.705Z,9.06
2022-11-17T07:18:06.103Z,9.02
2022-11-17T07:21:10.702Z,9.02
2022-11-17T07:24:14.691Z,8.96
2022-11-17T07:27:21.482Z,8.93
2022-11-17T07:30:24.098Z,8.94
2022-11-17T07:33:27.218Z,8.98
2022-11-17T07:36:31.967Z,8.94
2022-11-17T07:39:35.889Z,8.90
2022-11-17T07:42:38.570Z,8.90
2022-11-17T07:45:44.404Z,9.00
2022-11-17T07:48:47.110Z,9.07
2022-11-17T07:51:50.395Z,9.16
2022-11-17T07:54:54.392Z,9.21
2022-11-17T07:57:58.108Z,9.22
2022-11-17T08:01:05.001Z,9.24
2022-11-17T08:04:07.805Z,9.25
2022-11-17T08:07:10.570Z,9.16
2022-11-17T08:10:15.149Z,9.24
2022-11-17T08:13:17.876Z,9.25
2022-11-17T08:20:19.612Z,9.39
2022-11-17T08:23:37.922Z,9.12
2022-11-17T08:26:41.943Z,9.17
2022-11-17T08:29:44.753Z,9.18
2022-11-17T08:32:52.323Z,9.22
2022-11-17T08:35:57.414Z,9.21
2022-11-17T08:39:00.181Z,9.23
2022-11-17T08:42:04.386Z,9.14
2022-11-17T08:45:08.225Z,9.14
2022-11-17T08:48:10.970Z,9.36
2022-11-17T08:51:17.001Z,9.36
2022-11-17T08:54:19.687Z,9.42
2022-11-17T08:57:23.812Z,9.39
2022-11-17T09:00:26.764Z,9.58
2022-11-17T09:03:29.327Z,9.67
2022-11-17T09:06:31.945Z,9.86
2022-11-17T09:09:34.505Z,9.81
2022-11-17T09:12:38.585Z,9.73
2022-11-17T09:15:41.530Z,9.97
2022-11-17T09:18:44.625Z,10.40
2022-11-17T09:21:48.154Z,10.40
2022-11-17T09:24:50.704Z,10.37
2022-11-17T09:27:54.780Z,10.67
2022-11-17T09:30:59.211Z,10.96
2022-11-17T09:34:05.750Z,10.78
2022-11-17T09:37:08.633Z,10.73
2022-11-17T09:40:15.257Z,10.86
2022-11-17T09:43:27.461Z,11.10
2022-11-17T09:46:40.522Z,11.12
2022-11-17T09:49:58.287Z,11.31
2022-11-17T09:53:05.183Z,11.64
2022-11-17T09:56:10.242Z,11.53
2022-11-17T09:59:18.230Z,11.61
2022-11-17T10:02:20.766Z,12.17
2022-11-17T10:05:28.934Z,12.42
2022-11-17T10:08:37.872Z,14.12
2022-11-17T10:11:42.722Z,14.86
2022-11-17T10:14:49.160Z,15.55
2022-11-17T10:17:52.553Z,15.46
2022-11-17T10:20:55.073Z,14.58
2022-11-17T10:23:59.839Z,14.93
2022-11-17T10:27:03.912Z,15.86
2022-11-17T10:30:21.943Z,16.58
2022-11-17T10:33:34.196Z,15.63
2022-11-17T10:36:36.966Z,15.35
2022-11-17T10:39:41.765Z,15.44
2022-11-17T10:43:18.165Z,15.33
2022-11-17T10:46:32.139Z,15.87
2022-11-17T10:49:40.917Z,15.38
2022-11-17T10:52:43.520Z,14.81
2022-11-17T10:55:46.059Z,14.52
2022-11-17T10:58:59.666Z,14.04
2022-11-17T11:02:28.840Z,13.52
2022-11-17T11:05:31.730Z,14.38
2022-11-17T11:08:50.056Z,15.69
2022-11-17T11:11:57.965Z,16.39
2022-11-17T11:15:03.257Z,16.62
2022-11-17T11:18:15.331Z,16.09
2022-11-17T11:21:31.812Z,15.56
2022-11-17T11:24:43.397Z,15.26
2022-11-17T11:28:03.326Z,14.99
2022-11-17T11:31:16.984Z,16.02
2022-11-17T11:34:46.158Z,16.75
2022-11-17T11:37:59.797Z,17.44
2022-11-17T11:41:15.659Z,16.68
2022-11-17T11:44:40.569Z,17.39
2022-11-17T11:48:03.174Z,17.56
2022-11-17T11:51:14.434Z,16.93
2022-11-17T11:54:27.070Z,16.11
2022-11-17T11:57:35.857Z,15.16
2022-11-17T12:00:43.060Z,14.77
2022-11-17T12:03:54.695Z,14.15
2022-11-17T12:07:05.151Z,13.79
2022-11-17T12:10:19.043Z,13.77
2022-11-17T12:13:23.268Z,13.80
2022-11-17T12:16:31.268Z,13.85
2022-11-17T12:19:50.440Z,14.04
2022-11-17T12:23:10.180Z,13.80
2022-11-17T12:26:22.303Z,13.77
2022-11-17T12:29:46.181Z,13.51
2022-11-17T12:32:54.878Z,13.68
2022-11-17T12:36:17.241Z,13.65
2022-11-17T12:39:52.438Z,13.57
2022-11-17T12:43:20.861Z,13.87
2022-11-17T12:46:27.125Z,13.96
2022-11-17T12:49:36.125Z,13.64
2022-11-17T12:52:50.284Z,13.43
2022-11-17T12:56:15.642Z,13.51
2022-11-17T12:59:37.743Z,13.47
2022-11-17T13:02:59.268Z,13.48
2022-11-17T13:06:33.752Z,13.44
2022-11-17T13:09:36.053Z,13.22
2022-11-17T13:12:38.805Z,13.42
2022-11-17T13:15:43.595Z,13.71
2022-11-17T13:18:47.492Z,13.67
2022-11-17T13:22:02.434Z,13.47
2022-11-17T13:25:22.415Z,13.32
2022-11-17T13:28:29.881Z,13.18
2022-11-17T13:31:34.501Z,13.06
2022-11-17T13:34:45.700Z,12.87
2022-11-17T13:38:01.449Z,12.67
2022-11-17T13:41:05.231Z,12.59
2022-11-17T13:44:13.460Z,12.62
2022-11-17T13:47:21.722Z,12.55
2022-11-17T13:50:37.308Z,12.41
2022-11-17T13:53:42.831Z,12.39
2022-11-17T13:56:52.691Z,12.35
2022-11-17T13:59:55.876Z,12.59
2022-11-17T14:03:03.274Z,12.62
2022-11-17T14:06:07.925Z,12.31
2022-11-17T14:09:10.489Z,12.43
2022-11-17T14:12:16.960Z,12.54
2022-11-17T14:15:24.637Z,12.32
2022-11-17T14:18:32.910Z,12.32
2022-11-17T14:21:35.481Z,12.27
2022-11-17T14:24:39.176Z,12.10
2022-11-17T14:27:41.909Z,11.98
2022-11-17T14:30:47.169Z,11.82
2022-11-17T14:33:51.156Z,11.70
2022-11-17T14:36:56.099Z,11.54
2022-11-17T14:40:00.682Z,11.43
2022-11-17T14:43:03.255Z,11.26
2022-11-17T14:46:26.383Z,11.21
2022-11-17T14:49:30.289Z,11.15
2022-11-17T14:52:33.481Z,11.10
2022-11-17T14:55:38.880Z,11.09
2022-11-17T14:58:41.858Z,11.08
2022-11-17T15:01:44.368Z,11.07
2022-11-17T15:04:50.870Z,11.03
2022-11-17T15:07:55.674Z,11.01
2022-11-17T15:10:58.353Z,11.00
2022-11-17T15:14:05.363Z,10.87
2022-11-17T15:17:13.925Z,10.76
2022-11-17T15:20:18.952Z,10.56
2022-11-17T15:23:21.369Z,10.57
2022-11-17T15:26:23.951Z,10.34
2022-11-17T15:29:26.490Z,10.20
2022-11-17T15:32:28.909Z,10.24
2022-11-17T15:35:32.760Z,10.16
2022-11-17T15:38:35.420Z,10.06
2022-11-17T15:41:37.955Z,10.04
2022-11-17T15:44:40.362Z,9.94
2022-11-17T15:47:42.855Z,9.76
2022-11-17T15:50:46.733Z,9.62
2022-11-17T15:53:51.356Z,9.44
2022-11-17T15:56:53.857Z,9.46
2022-11-17T15:59:56.337Z,9.46
2022-11-17T16:02:58.967Z,9.43
2022-11-17T16:06:03.106Z,9.31
2022-11-17T16:09:08.799Z,9.29
2022-11-17T16:12:11.454Z,9.27
2022-11-17T16:15:13.983Z,9.25
2022-11-17T16:18:16.708Z,9.24
2022-11-17T16:21:20.720Z,9.31
2022-11-17T16:24:23.241Z,9.18
2022-11-17T16:27:25.696Z,9.27
2022-11-17T16:30:32.757Z,9.07
2022-11-17T16:33:37.898Z,9.02
2022-11-17T16:36:43.968Z,8.89
2022-11-17T16:39:46.566Z,8.86
2022-11-17T16:42:49.387Z,8.91
2022-11-17T16:45:51.878Z,8.84
2022-11-17T16:48:55.039Z,8.86
2022-11-17T16:51:58.814Z,8.94
2022-11-17T16:55:04.810Z,8.99
2022-11-17T16:58:11.724Z,9.03
2022-11-17T17:01:16.304Z,9.06
2022-11-17T17:04:21.957Z,9.11
2022-11-17T17:07:25.900Z,9.12
2022-11-17T17:10:28.384Z,9.24
2022-11-17T17:13:31.438Z,9.21
2022-11-17T17:16:35.761Z,9.18
2022-11-17T17:19:38.605Z,9.18
2022-11-17T17:22:42.455Z,9.13
2022-11-17T17:25:45.005Z,9.02
2022-11-17T17:28:50.978Z,9.11
2022-11-17T17:31:53.440Z,9.03
2022-11-17T17:34:56.002Z,9.05
2022-11-17T17:38:00.077Z,9.07
2022-11-17T17:41:06.838Z,9.02
2022-11-17T17:44:15.032Z,8.99
2022-11-17T17:47:17.617Z,8.84
2022-11-17T17:50:28.872Z,8.81
2022-11-17T17:53:33.620Z,8.85
2022-11-17T17:56:36.274Z,8.68
2022-11-17T17:59:39.113Z,8.60
2022-11-17T18:02:41.899Z,8.55
2022-11-17T18:05:44.688Z,8.43
2022-11-17T18:08:49.253Z,8.55
2022-11-17T18:11:51.769Z,8.53
2022-11-17T18:14:54.541Z,8.49
2022-11-17T18:17:57.225Z,8.53
2022-11-17T18:21:01.208Z,8.55
2022-11-17T18:24:06.789Z,8.51
2022-11-17T18:27:09.624Z,8.57
2022-11-17T18:30:12.628Z,8.67
2022-11-17T18:33:16.265Z,8.57
2022-11-17T18:36:19.283Z,8.54
2022-11-17T18:39:24.085Z,8.52
2022-11-17T18:42:26.660Z,8.59
2022-11-17T18:45:29.423Z,8.60
2022-11-17T18:48:33.409Z,8.69
2022-11-17T18:51:35.957Z,8.75
2022-11-17T18:54:40.098Z,8.78
2022-11-17T18:57:45.063Z,8.68
2022-11-17T19:00:48.014Z,8.77
2022-11-17T19:03:52.451Z,8.73
2022-11-17T19:06:55.227Z,8.79
2022-11-17T19:10:00.017Z,8.69
2022-11-17T19:13:04.771Z,8.80
2022-11-17T19:16:09.800Z,8.82
2022-11-17T19:19:14.175Z,8.69
2022-11-17T19:22:17.574Z,8.74
2022-11-17T19:25:21.623Z,8.96
2022-11-17T19:28:25.116Z,9.02
2022-11-17T19:31:28.395Z,8.93
2022-11-17T19:34:31.458Z,8.86
2022-11-17T19:37:34.189Z,9.02
2022-11-17T19:40:38.771Z,8.94
2022-11-17T19:43:45.490Z,9.02
2022-11-17T19:46:48.245Z,9.00
2022-11-17T19:49:50.664Z,9.06
2022-11-17T19:52:53.441Z,9.12
2022-11-17T19:55:59.429Z,9.24
2022-11-17T19:59:21.309Z,9.23
2022-11-17T20:02:24.275Z,9.35
2022-11-17T20:05:27.109Z,9.36
2022-11-17T20:08:30.675Z,9.36
2022-11-17T20:11:35.388Z,9.42
2022-11-17T20:14:38.789Z,9.37
2022-11-17T20:17:41.497Z,9.41
2022-11-17T20:20:44.085Z,9.50
2022-11-17T20:23:47.645Z,9.53
2022-11-17T20:26:51.999Z,9.43
2022-11-17T20:29:55.263Z,9.40
2022-11-17T20:32:59.103Z,9.32
2022-11-17T20:36:02.049Z,9.48
2022-11-17T20:39:06.650Z,9.56
2022-11-17T20:42:10.799Z,9.53
2022-11-17T20:45:13.485Z,9.48
2022-11-17T20:48:16.162Z,9.46
2022-11-17T20:51:20.046Z,9.51
2022-11-17T20:54:22.798Z,9.60
2022-11-17T20:57:26.842Z,9.53
2022-11-17T21:00:29.652Z,9.48
2022-11-17T21:03:32.158Z,9.48
2022-11-17T21:06:34.881Z,9.48
2022-11-17T21:09:37.646Z,9.53
2022-11-17T21:12:41.483Z,9.34
2022-11-17T21:15:43.975Z,9.30
2022-11-17T21:18:48.232Z,9.27
2022-11-17T21:21:53.891Z,9.25
2022-11-17T21:24:56.406Z,9.03
2022-11-17T21:28:00.424Z,9.25
2022-11-17T21:31:06.174Z,9.12
2022-11-17T21:34:14.705Z,9.20
2022-11-17T21:37:17.382Z,9.22
2022-11-17T21:40:19.865Z,9.12
2022-11-17T21:43:23.676Z,9.03
2022-11-17T21:46:28.029Z,9.06
2022-11-17T21:49:30.705Z,9.11
2022-11-17T21:52:33.495Z,8.99
2022-11-17T21:55:35.958Z,9.01
2022-11-17T21:58:40.119Z,9.02
2022-11-17T22:01:43.173Z,9.02
2022-11-17T22:04:45.969Z,8.95
2022-11-17T22:07:48.639Z,8.85
2022-11-17T22:10:51.136Z,8.93
2022-11-17T22:13:54.999Z,8.85
2022-11-17T22:16:57.514Z,8.80
2022-11-17T22:20:00.056Z,8.78
2022-11-17T22:23:02.473Z,8.86
2022-11-17T22:26:06.454Z,8.78
2022-11-17T22:29:11.717Z,8.77
2022-11-17T22:32:14.237Z,8.76
2022-11-17T22:35:16.705Z,8.77
2022-11-17T22:38:19.369Z,8.77
2022-11-17T22:41:22.796Z,8.84
2022-11-17T22:44:26.687Z,8.80
2022-11-17T22:47:29.425Z,8.85
2022-11-17T22:50:32.651Z,8.79
2022-11-17T22:53:35.507Z,8.78
2022-11-17T22:56:37.982Z,8.78
2022-11-17T22:59:41.820Z,8.77
2022-11-17T23:02:44.373Z,8.78
2022-11-17T23:05:46.793Z,8.69
2022-11-17T23:08:49.613Z,8.71
2022-11-17T23:11:52.281Z,8.72
2022-11-17T23:14:56.207Z,8.64
2022-11-17T23:17:59.138Z,8.63
2022-11-17T23:21:04.488Z,8.77
2022-11-17T23:24:09.894Z,8.81
2022-11-17T23:27:12.465Z,8.82
2022-11-17T23:30:16.983Z,8.81
2022-11-17T23:33:19.718Z,8.91
2022-11-17T23:36:23.180Z,8.96
2022-11-17T23:39:25.703Z,8.98
2022-11-17T23:42:32.220Z,8.93
2022-11-17T23:45:36.582Z,8.95
2022-11-17T23:48:39.893Z,8.91
2022-11-17T23:51:42.692Z,8.96
2022-11-17T23:54:45.168Z,9.04
2022-11-17T23:57:47.613Z,9.05
